Time;durP1;ratioP1;P1;durP2;ratioP2;P2;SDS_P1;SDS_P2;PMS_P1;PMS_P2;Temp;Humidity;BMP_temperature;BMP_pressure;BME280_temperature;BME280_humidity;BME280_pressure;Samples;Min_cycle;Max_cycle;Signal;HPM_P1;HPM_P2
2022/09/29 00:00:15;;;;;;;0.20;0.20;;;7.60;99.90;;;;;;4850957;29;20106;-79
2022/09/29 00:02:40;;;;;;;0.20;0.20;;;7.50;99.90;;;;;;4852674;29;20049;-78
2022/09/29 00:05:06;;;;;;;0.20;0.20;;;7.90;99.90;;;;;;4838280;29;20056;-80
2022/09/29 00:07:32;;;;;;;0.20;0.20;;;7.50;99.90;;;;;;4852141;29;20042;-79
2022/09/29 00:10:01;;;;;;;0.20;0.20;;;7.50;99.90;;;;;;4857309;29;20045;-79
2022/09/29 00:12:27;;;;;;;0.10;0.10;;;7.50;99.90;;;;;;4856101;29;20089;-79
2022/09/29 00:14:53;;;;;;;0.20;0.20;;;7.50;99.90;;;;;;4857642;29;20572;-78
2022/09/29 00:17:18;;;;;;;0.20;0.20;;;7.50;99.90;;;;;;4858159;29;20049;-78
2022/09/29 00:19:44;;;;;;;0.15;0.15;;;7.60;99.90;;;;;;4857200;29;20080;-78
2022/09/29 00:22:10;;;;;;;0.20;0.20;;;7.50;99.90;;;;;;4858140;29;20109;-78
2022/09/29 00:24:35;;;;;;;0.20;0.20;;;7.50;99.90;;;;;;4842322;29;20064;-79
2022/09/29 00:27:01;;;;;;;0.20;0.20;;;7.50;99.90;;;;;;4840238;29;20054;-79
2022/09/29 00:29:27;;;;;;;0.20;0.20;;;7.50;99.90;;;;;;4839478;29;20426;-78
2022/09/29 00:31:53;;;;;;;0.20;0.20;;;7.50;99.90;;;;;;4858362;29;20050;-79
2022/09/29 00:34:18;;;;;;;0.20;0.20;;;7.40;99.90;;;;;;4854261;29;20057;-79
2022/09/29 00:36:44;;;;;;;0.20;0.20;;;7.40;99.90;;;;;;4853239;29;20072;-78
2022/09/29 00:39:10;;;;;;;0.20;0.20;;;7.60;99.90;;;;;;4853782;29;20041;-79
2022/09/29 00:41:38;;;;;;;0.20;0.20;;;7.40;99.90;;;;;;4838187;29;20049;-79
2022/09/29 00:44:12;;;;;;;0.20;0.20;;;7.40;99.90;;;;;;4857613;29;20141;-79
2022/09/29 00:46:53;;;;;;;0.20;0.20;;;7.40;99.90;;;;;;4850470;29;20065;-79
2022/09/29 00:49:21;;;;;;;0.10;0.10;;;7.40;99.90;;;;;;4855194;29;20049;-79
2022/09/29 00:51:55;;;;;;;0.20;0.20;;;7.30;99.90;;;;;;4854766;29;20064;-79
2022/09/29 00:54:27;;;;;;;0.20;0.20;;;7.40;99.90;;;;;;4858938;29;20041;-80
2022/09/29 00:56:55;;;;;;;0.10;0.10;;;7.40;99.90;;;;;;4856721;29;20089;-79
2022/09/29 00:59:30;;;;;;;0.20;0.20;;;7.40;99.90;;;;;;4864234;29;20532;-78
2022/09/29 01:01:56;;;;;;;0.20;0.20;;;7.30;99.90;;;;;;4870721;29;20054;-79
2022/09/29 01:04:22;;;;;;;0.20;0.20;;;7.40;99.90;;;;;;4880156;29;20084;-79
2022/09/29 01:06:53;;;;;;;0.10;0.10;;;7.40;99.90;;;;;;4868486;29;20045;-79
2022/09/29 01:09:24;;;;;;;0.20;0.20;;;7.30;99.90;;;;;;4852624;29;20042;-79
2022/09/29 01:11:52;;;;;;;0.20;0.20;;;7.20;99.90;;;;;;4857482;29;20053;-79
2022/09/29 01:14:19;;;;;;;0.20;0.20;;;7.10;99.90;;;;;;4856819;29;20060;-79
2022/09/29 01:16:45;;;;;;;0.20;0.20;;;7.10;99.90;;;;;;4839504;29;20057;-79
2022/09/29 01:19:25;;;;;;;0.20;0.20;;;7.10;99.90;;;;;;4848105;29;20578;-79
2022/09/29 01:22:09;;;;;;;0.20;0.20;;;7.30;99.90;;;;;;4858451;29;20051;-79
2022/09/29 01:25:06;;;;;;;0.20;0.20;;;7.00;99.90;;;;;;4855806;29;20178;-79
2022/09/29 01:28:03;;;;;;;0.20;0.20;;;6.90;99.90;;;;;;4823138;29;20118;-79
2022/09/29 01:31:08;;;;;;;0.20;0.20;;;6.90;99.90;;;;;;4856194;29;20505;-79
2022/09/29 01:33:46;;;;;;;0.20;0.20;;;6.90;99.90;;;;;;4855788;29;20136;-79
2022/09/29 01:36:17;;;;;;;0.20;0.20;;;6.90;99.90;;;;;;4857383;29;20133;-79
2022/09/29 01:39:24;;;;;;;0.20;0.20;;;6.90;99.90;;;;;;4852516;29;20080;-79
2022/09/29 01:42:22;;;;;;;0.20;0.20;;;6.80;99.90;;;;;;4837396;29;20065;-79
2022/09/29 01:44:57;;;;;;;0.20;0.20;;;6.90;99.90;;;;;;4846999;29;20050;-79
2022/09/29 01:47:35;;;;;;;0.20;0.20;;;6.90;99.90;;;;;;4852673;29;20069;-79
2022/09/29 01:50:10;;;;;;;0.20;0.20;;;7.10;99.90;;;;;;4854281;29;20041;-79
2022/09/29 01:52:41;;;;;;;0.20;0.20;;;6.90;99.90;;;;;;4855651;29;20137;-78
2022/09/29 01:55:11;;;;;;;0.20;0.20;;;7.00;99.90;;;;;;4852467;29;20502;-79
2022/09/29 01:57:42;;;;;;;0.20;0.20;;;7.00;99.90;;;;;;4854044;29;20045;-78
2022/09/29 02:00:10;;;;;;;;;;;7.30;99.90;;;;;;4840487;29;20050;-78
2022/09/29 02:03:05;;;;;;;0.20;0.20;;;7.00;99.90;;;;;;4834239;29;19924;-78
2022/09/29 02:05:53;;;;;;;0.20;0.20;;;7.50;99.90;;;;;;4835952;29;20070;-79
2022/09/29 02:08:39;;;;;;;0.20;0.20;;;6.90;99.90;;;;;;4821583;29;20395;-79
2022/09/29 02:11:11;;;;;;;0.20;0.20;;;6.80;99.90;;;;;;4851741;29;20076;-78
2022/09/29 02:13:43;;;;;;;0.20;0.20;;;6.80;99.90;;;;;;4854389;29;20046;-79
2022/09/29 02:16:13;;;;;;;0.20;0.20;;;6.90;99.90;;;;;;4853986;29;20046;-79
2022/09/29 02:19:14;;;;;;;0.20;0.20;;;7.00;99.90;;;;;;4850668;29;20042;-78
2022/09/29 02:21:41;;;;;;;0.20;0.20;;;6.90;99.90;;;;;;4856488;29;20401;-78
2022/09/29 02:24:11;;;;;;;0.20;0.20;;;6.90;99.90;;;;;;4849088;29;20129;-79
2022/09/29 02:26:37;;;;;;;0.20;0.20;;;7.00;99.90;;;;;;4857381;29;20049;-79
2022/09/29 02:29:05;;;;;;;0.20;0.20;;;7.00;99.90;;;;;;4855064;29;20113;-79
2022/09/29 02:31:31;;;;;;;0.20;0.20;;;7.10;99.90;;;;;;4855374;29;20691;-78
2022/09/29 02:33:59;;;;;;;0.17;0.17;;;7.00;99.90;;;;;;4852887;29;20046;-79
2022/09/29 02:36:46;;;;;;;0.20;0.20;;;7.10;99.90;;;;;;4836713;29;20136;-79
2022/09/29 02:39:40;;;;;;;0.15;0.15;;;7.00;99.90;;;;;;4838561;29;20041;-78
2022/09/29 02:42:21;;;;;;;0.20;0.20;;;7.10;99.90;;;;;;4830471;29;20486;-79
2022/09/29 02:45:17;;;;;;;0.20;0.20;;;7.10;99.90;;;;;;4855125;29;20612;-78
2022/09/29 02:48:01;;;;;;;0.20;0.20;;;7.10;99.90;;;;;;4835713;29;20055;-79
2022/09/29 02:50:45;;;;;;;0.20;0.20;;;7.10;99.90;;;;;;4864604;29;20048;-79
2022/09/29 02:53:47;;;;;;;0.20;0.20;;;7.10;99.90;;;;;;4850152;29;20100;-79
2022/09/29 02:56:37;;;;;;;0.20;0.20;;;7.10;99.90;;;;;;4851417;29;20502;-78
2022/09/29 02:59:08;;;;;;;0.20;0.20;;;7.10;99.90;;;;;;4854371;29;20052;-79
2022/09/29 03:01:50;;;;;;;0.20;0.20;;;7.10;99.90;;;;;;4854517;29;20094;-79
2022/09/29 03:04:16;;;;;;;0.20;0.20;;;7.10;99.90;;;;;;4847889;29;20481;-79
2022/09/29 03:06:42;;;;;;;0.20;0.20;;;7.20;99.90;;;;;;4853078;29;20169;-79
2022/09/29 03:09:11;;;;;;;0.20;0.20;;;7.00;99.90;;;;;;4836615;29;20046;-79
2022/09/29 03:11:36;;;;;;;0.20;0.20;;;7.10;99.90;;;;;;4854464;29;21076;-78
2022/09/29 03:14:02;;;;;;;0.20;0.20;;;7.00;99.90;;;;;;4854948;29;20108;-79
2022/09/29 03:16:28;;;;;;;0.20;0.20;;;7.10;99.90;;;;;;4854327;29;20506;-78
2022/09/29 03:18:56;;;;;;;0.20;0.20;;;7.00;99.90;;;;;;4853427;29;20072;-79
2022/09/29 03:21:22;;;;;;;0.20;0.20;;;7.10;99.90;;;;;;4850889;29;20057;-78
2022/09/29 03:23:48;;;;;;;0.20;0.20;;;7.00;99.90;;;;;;4838509;29;20132;-78
2022/09/29 03:26:13;;;;;;;0.20;0.20;;;7.00;99.90;;;;;;4856566;29;20037;-79
2022/09/29 03:28:39;;;;;;;0.20;0.20;;;7.10;99.90;;;;;;4851085;29;20061;-78
2022/09/29 03:31:06;;;;;;;0.20;0.20;;;7.00;99.90;;;;;;4838921;29;20042;-78
2022/09/29 03:33:32;;;;;;;0.20;0.20;;;7.10;99.90;;;;;;4853461;29;20045;-78
2022/09/29 03:36:00;;;;;;;0.15;0.15;;;7.80;99.90;;;;;;4853915;29;20703;-79
2022/09/29 03:38:26;;;;;;;0.20;0.20;;;6.90;99.90;;;;;;4852100;29;20116;-79
2022/09/29 03:40:54;;;;;;;0.20;0.20;;;6.90;99.90;;;;;;4853748;29;20127;-79
2022/09/29 03:43:19;;;;;;;0.20;0.20;;;6.90;99.90;;;;;;4841901;29;20064;-78
2022/09/29 03:45:53;;;;;;;0.20;0.20;;;6.90;99.90;;;;;;4841136;29;20477;-78
2022/09/29 03:48:20;;;;;;;0.20;0.20;;;6.90;99.90;;;;;;4857474;29;20185;-79
2022/09/29 03:50:47;;;;;;;0.20;0.20;;;6.80;99.90;;;;;;4859964;29;20060;-78
2022/09/29 03:53:13;;;;;;;0.20;0.20;;;6.80;99.90;;;;;;4858260;29;20057;-78
2022/09/29 03:55:39;;;;;;;0.20;0.20;;;6.70;99.90;;;;;;4858685;29;20057;-78
2022/09/29 03:58:05;;;;;;;0.20;0.20;;;6.80;99.90;;;;;;4855250;29;20423;-78
2022/09/29 04:00:31;;;;;;;0.20;0.20;;;6.80;99.90;;;;;;4858429;29;20047;-78
2022/09/29 04:02:58;;;;;;;0.10;0.10;;;6.80;99.90;;;;;;4857092;29;20148;-78
2022/09/29 04:05:24;;;;;;;0.20;0.20;;;6.80;99.90;;;;;;4841539;29;20527;-78
2022/09/29 04:07:49;;;;;;;0.20;0.20;;;6.80;99.90;;;;;;4852132;29;20098;-78
2022/09/29 04:10:15;;;;;;;0.20;0.20;;;6.80;99.90;;;;;;4858848;29;20550;-79
2022/09/29 04:12:41;;;;;;;0.20;0.20;;;6.60;99.90;;;;;;4857786;29;20049;-79
2022/09/29 04:15:09;;;;;;;0.20;0.20;;;6.60;99.90;;;;;;4858158;29;20046;-79
2022/09/29 04:17:35;;;;;;;0.20;0.20;;;6.50;99.90;;;;;;4841961;29;20682;-78
2022/09/29 04:20:01;;;;;;;0.20;0.20;;;6.50;99.90;;;;;;4857053;29;20140;-78
2022/09/29 04:22:26;;;;;;;0.20;0.20;;;6.50;99.90;;;;;;4854419;29;20049;-78
2022/09/29 04:24:52;;;;;;;0.10;0.10;;;6.40;99.90;;;;;;4856432;29;20045;-79
2022/09/29 04:27:18;;;;;;;0.20;0.20;;;6.40;99.90;;;;;;4853453;29;20501;-78
2022/09/29 04:29:43;;;;;;;0.20;0.20;;;6.40;99.90;;;;;;4856605;29;20045;-78
2022/09/29 04:32:09;;;;;;;0.20;0.20;;;6.30;99.90;;;;;;4858194;29;20049;-78
2022/09/29 04:34:35;;;;;;;0.20;0.20;;;6.40;99.90;;;;;;4865164;29;20052;-78
2022/09/29 04:37:01;;;;;;;0.20;0.20;;;6.40;99.90;;;;;;4873439;29;20070;-77
2022/09/29 04:39:27;;;;;;;0.20;0.20;;;6.30;99.90;;;;;;4860066;29;20049;-78
2022/09/29 04:41:52;;;;;;;0.20;0.20;;;6.40;99.90;;;;;;4855559;29;20136;-79
2022/09/29 04:44:23;;;;;;;0.20;0.20;;;6.40;99.90;;;;;;4856296;29;20074;-78
2022/09/29 04:46:52;;;;;;;0.20;0.20;;;6.40;99.90;;;;;;4852581;29;20042;-78
2022/09/29 04:49:18;;;;;;;0.20;0.20;;;6.40;99.90;;;;;;4841221;29;20049;-78
2022/09/29 04:51:44;;;;;;;0.20;0.20;;;6.30;99.90;;;;;;4857292;29;20498;-78
2022/09/29 04:54:09;;;;;;;0.13;0.13;;;6.30;99.90;;;;;;4855405;29;20077;-79
2022/09/29 04:56:35;;;;;;;0.20;0.20;;;6.20;99.90;;;;;;4858012;29;20084;-79
2022/09/29 04:59:01;;;;;;;0.20;0.20;;;7.00;99.90;;;;;;4857842;29;20053;-78
2022/09/29 05:01:27;;;;;;;0.20;0.20;;;6.20;99.90;;;;;;4856239;29;20052;-79
2022/09/29 05:03:52;;;;;;;0.20;0.20;;;6.10;99.90;;;;;;4838272;29;20049;-79
2022/09/29 05:06:18;;;;;;;0.20;0.20;;;6.10;99.90;;;;;;4841457;29;20087;-79
2022/09/29 05:08:46;;;;;;;0.20;0.20;;;6.10;99.90;;;;;;4855307;29;20045;-79
2022/09/29 05:11:13;;;;;;;0.20;0.20;;;6.10;99.90;;;;;;4839416;29;20085;-79
2022/09/29 05:13:38;;;;;;;0.20;0.20;;;6.10;99.90;;;;;;4855418;29;20049;-79
2022/09/29 05:16:04;;;;;;;0.20;0.20;;;6.10;99.90;;;;;;4841162;29;20060;-79
2022/09/29 05:18:33;;;;;;;0.20;0.20;;;6.10;99.90;;;;;;4848618;29;20040;-78
2022/09/29 05:21:07;;;;;;;0.20;0.20;;;6.10;99.90;;;;;;4856839;29;20053;-79
2022/09/29 05:23:33;;;;;;;0.20;0.20;;;6.10;99.90;;;;;;4854676;29;20173;-79
2022/09/29 05:26:03;;;;;;;0.20;0.20;;;6.00;99.90;;;;;;4852785;29;20042;-79
2022/09/29 05:28:29;;;;;;;0.30;0.30;;;6.00;99.90;;;;;;4857293;29;20455;-79
2022/09/29 05:31:03;;;;;;;0.20;0.20;;;6.00;99.90;;;;;;4855434;29;20053;-79
2022/09/29 05:33:30;;;;;;;0.20;0.20;;;5.90;99.90;;;;;;4858740;29;20098;-79
2022/09/29 05:35:56;;;;;;;0.20;0.20;;;5.90;99.90;;;;;;4856015;29;20065;-79
2022/09/29 05:38:23;;;;;;;0.20;0.20;;;5.90;99.90;;;;;;4854895;29;20494;-79
2022/09/29 05:40:50;;;;;;;0.20;0.20;;;5.90;99.90;;;;;;4843889;29;20171;-79
2022/09/29 05:43:16;;;;;;;0.20;0.20;;;5.90;99.90;;;;;;4845889;29;20065;-79
2022/09/29 05:45:41;;;;;;;0.20;0.20;;;6.00;99.90;;;;;;4837538;29;20507;-79
2022/09/29 05:48:07;;;;;;;0.20;0.20;;;5.90;99.90;;;;;;4847503;29;20049;-79
2022/09/29 05:50:40;;;;;;;0.20;0.20;;;6.00;99.90;;;;;;4839183;29;20053;-80
2022/09/29 05:53:06;;;;;;;0.20;0.20;;;6.00;99.90;;;;;;4854772;29;20049;-80
2022/09/29 05:55:32;;;;;;;0.20;0.20;;;6.10;99.90;;;;;;4855362;29;20069;-80
2022/09/29 05:57:57;;;;;;;0.20;0.20;;;6.40;99.90;;;;;;4857086;29;20379;-77
2022/09/29 06:00:23;;;;;;;0.20;0.20;;;6.20;99.90;;;;;;4840045;29;20391;-77
2022/09/29 06:02:48;;;;;;;0.20;0.20;;;6.50;99.90;;;;;;4853593;29;20069;-77
2022/09/29 06:05:14;;;;;;;0.20;0.20;;;6.20;99.90;;;;;;4838820;29;20041;-77
2022/09/29 06:07:42;;;;;;;0.20;0.20;;;6.20;99.90;;;;;;4838482;29;20097;-79
2022/09/29 06:10:08;;;;;;;0.20;0.20;;;6.30;99.90;;;;;;4857310;29;20046;-79
2022/09/29 06:12:35;;;;;;;0.20;0.20;;;6.30;99.90;;;;;;4846332;29;20076;-79
2022/09/29 06:15:03;;;;;;;0.20;0.20;;;6.30;99.90;;;;;;4852266;29;20060;-79
2022/09/29 06:17:29;;;;;;;0.20;0.20;;;6.40;99.90;;;;;;4856164;29;20520;-77
2022/09/29 06:19:54;;;;;;;0.20;0.20;;;6.40;99.90;;;;;;4839592;29;20030;-78
2022/09/29 06:22:20;;;;;;;0.20;0.20;;;6.40;99.90;;;;;;4875084;29;20097;-78
2022/09/29 06:24:46;;;;;;;0.20;0.20;;;6.40;99.90;;;;;;4866004;29;20042;-78
2022/09/29 06:27:19;;;;;;;0.20;0.20;;;6.40;99.90;;;;;;5096736;27;20121;-78
2022/09/29 06:29:44;;;;;;;0.20;0.20;;;6.50;99.90;;;;;;5084267;28;20123;-79
2022/09/29 06:32:10;;;;;;;0.20;0.20;;;6.50;99.90;;;;;;5085025;28;20040;-79
2022/09/29 06:37:33;;;;;;;0.20;0.20;;;6.60;99.90;;;;;;5082251;28;20506;-79
2022/09/29 06:37:33;;;;;;;0.20;0.20;;;6.60;99.90;;;;;;5066871;28;20182;-78
2022/09/29 06:39:59;;;;;;;0.20;0.20;;;6.60;99.90;;;;;;5061296;28;20135;-79
2022/09/29 06:42:25;;;;;;;0.20;0.20;;;6.60;99.90;;;;;;5083205;28;20028;-78
2022/09/29 06:44:51;;;;;;;0.20;0.20;;;6.70;99.90;;;;;;5079226;28;20047;-79
2022/09/29 06:47:16;;;;;;;0.20;0.20;;;6.80;99.90;;;;;;5079403;28;20557;-78
2022/09/29 06:49:42;;;;;;;0.20;0.20;;;6.70;99.90;;;;;;5063437;28;20128;-79
2022/09/29 06:52:10;;;;;;;0.20;0.20;;;6.80;99.90;;;;;;5090720;28;20518;-74
2022/09/29 06:54:36;;;;;;;0.20;0.20;;;6.80;99.90;;;;;;5082305;28;20074;-75
2022/09/29 06:57:01;;;;;;;0.20;0.20;;;6.90;99.90;;;;;;5086547;28;20090;-74
2022/09/29 06:59:27;;;;;;;0.20;0.20;;;6.90;99.90;;;;;;5065419;28;20464;-76
2022/09/29 07:01:53;;;;;;;0.20;0.20;;;6.90;99.90;;;;;;5052083;28;20127;-77
2022/09/29 07:04:20;;;;;;;0.20;0.20;;;6.90;99.90;;;;;;5082713;28;20036;-77
2022/09/29 07:06:46;;;;;;;0.20;0.20;;;7.10;99.90;;;;;;5066425;28;20076;-77
2022/09/29 07:09:14;;;;;;;0.20;0.20;;;7.10;99.90;;;;;;5083480;28;20044;-77
2022/09/29 07:11:45;;;;;;;0.20;0.20;;;7.20;99.90;;;;;;5078992;28;20052;-76
2022/09/29 07:14:16;;;;;;;0.10;0.10;;;7.10;99.90;;;;;;5082278;28;21741;-77
2022/09/29 07:16:42;;;;;;;0.20;0.20;;;7.20;99.90;;;;;;5080587;28;20055;-76
2022/09/29 07:19:08;;;;;;;0.20;0.20;;;7.20;99.90;;;;;;5083228;28;20352;-76
2022/09/29 07:21:33;;;;;;;0.20;0.20;;;7.30;99.90;;;;;;5064432;28;20056;-76
2022/09/29 07:23:59;;;;;;;0.20;0.20;;;7.40;99.90;;;;;;5080207;28;20523;-77
2022/09/29 07:26:25;;;;;;;0.20;0.20;;;7.40;99.90;;;;;;5087576;28;20532;-77
2022/09/29 07:28:50;;;;;;;0.20;0.20;;;7.50;99.90;;;;;;5060169;28;20144;-77
2022/09/29 07:31:19;;;;;;;0.20;0.20;;;7.60;99.90;;;;;;5081426;28;20040;-77
2022/09/29 07:33:46;;;;;;;0.20;0.20;;;7.60;99.90;;;;;;5083991;28;20033;-76
2022/09/29 07:36:13;;;;;;;0.20;0.20;;;7.70;99.90;;;;;;5069982;28;20094;-77
2022/09/29 07:38:38;;;;;;;0.20;0.20;;;7.80;99.90;;;;;;5048662;28;20404;-76
2022/09/29 07:41:07;;;;;;;0.20;0.20;;;7.90;99.90;;;;;;5043007;28;20052;-76
2022/09/29 07:43:33;;;;;;;0.20;0.20;;;8.00;99.90;;;;;;5055328;28;20071;-76
2022/09/29 07:46:01;;;;;;;0.20;0.20;;;8.10;99.90;;;;;;5040688;28;20093;-76
2022/09/29 07:48:28;;;;;;;0.20;0.20;;;8.10;99.90;;;;;;5065953;28;20039;-77
2022/09/29 07:51:10;;;;;;;0.20;0.20;;;8.20;99.90;;;;;;5047374;28;20132;-77
2022/09/29 07:53:40;;;;;;;0.17;0.17;;;8.30;99.90;;;;;;5051922;28;20127;-78
2022/09/29 07:56:17;;;;;;;0.17;0.17;;;8.40;99.90;;;;;;5068355;28;20036;-77
2022/09/29 07:58:44;;;;;;;0.20;0.20;;;8.50;99.90;;;;;;5067330;28;20037;-77
2022/09/29 08:01:12;;;;;;;0.20;0.20;;;8.60;99.90;;;;;;5068857;28;20056;-76
2022/09/29 08:03:45;;;;;;;0.20;0.20;;;8.70;99.90;;;;;;5051428;28;20041;-77
2022/09/29 08:06:11;;;;;;;0.10;0.10;;;8.70;99.90;;;;;;5055270;28;20067;-77
2022/09/29 08:08:40;;;;;;;0.20;0.20;;;8.90;99.90;;;;;;5091518;28;20032;-77
2022/09/29 08:11:12;;;;;;;0.20;0.20;;;8.80;99.90;;;;;;5052329;28;20045;-77
2022/09/29 08:13:37;;;;;;;0.20;0.20;;;8.90;99.90;;;;;;5044203;28;20048;-76
2022/09/29 08:16:06;;;;;;;0.20;0.20;;;9.00;99.90;;;;;;5046911;28;20048;-77
2022/09/29 08:18:33;;;;;;;0.20;0.20;;;9.10;99.90;;;;;;5056952;28;20037;-77
2022/09/29 08:20:59;;;;;;;0.20;0.20;;;9.10;99.90;;;;;;5049816;28;20047;-77
2022/09/29 08:23:27;;;;;;;0.10;0.10;;;9.10;99.90;;;;;;5048327;28;20041;-77
2022/09/29 08:26:05;;;;;;;0.20;0.20;;;9.20;99.90;;;;;;5069427;28;20048;-76
2022/09/29 08:28:32;;;;;;;0.20;0.20;;;9.40;99.90;;;;;;5065997;28;20099;-77
2022/09/29 08:31:08;;;;;;;0.32;0.30;;;10.10;99.90;;;;;;5049819;28;20053;-77
2022/09/29 08:33:35;;;;;;;0.20;0.20;;;9.50;99.90;;;;;;5048443;28;20779;-76
2022/09/29 08:36:04;;;;;;;0.20;0.20;;;9.70;99.90;;;;;;5070294;28;20193;-77
2022/09/29 08:38:31;;;;;;;0.20;0.20;;;9.70;99.90;;;;;;5065196;28;20139;-76
2022/09/29 08:41:01;;;;;;;0.20;0.20;;;9.80;99.90;;;;;;5069314;28;20040;-75
2022/09/29 08:43:38;;;;;;;0.20;0.20;;;9.90;99.90;;;;;;5047384;28;20051;-76
2022/09/29 08:46:16;;;;;;;0.20;0.20;;;10.00;99.90;;;;;;5040964;28;20410;-77
2022/09/29 08:48:43;;;;;;;0.10;0.10;;;10.10;99.90;;;;;;5055721;28;20068;-76
2022/09/29 08:51:35;;;;;;;0.20;0.20;;;10.10;99.90;;;;;;5045425;28;20056;-76
2022/09/29 08:54:05;;;;;;;;;;;10.20;99.90;;;;;;5047203;28;20165;-77
2022/09/29 08:56:33;;;;;;;0.20;0.20;;;10.30;99.90;;;;;;5039519;28;19924;-77
2022/09/29 08:58:58;;;;;;;0.25;0.25;;;10.40;99.90;;;;;;5048439;28;20501;-76
2022/09/29 09:01:59;;;;;;;0.20;0.20;;;10.60;99.90;;;;;;5048653;28;20044;-76
2022/09/29 09:04:43;;;;;;;0.20;0.20;;;10.60;99.90;;;;;;5067253;28;20127;-76
2022/09/29 09:07:08;;;;;;;0.20;0.20;;;10.70;99.90;;;;;;5050994;28;20072;-77
2022/09/29 09:09:55;;;;;;;0.13;0.13;;;10.80;99.90;;;;;;5045429;28;20471;-77
2022/09/29 09:12:39;;;;;;;0.20;0.20;;;10.80;99.90;;;;;;5064456;28;20508;-76
2022/09/29 09:15:37;;;;;;;0.20;0.20;;;10.90;99.90;;;;;;5046437;28;20083;-76
2022/09/29 09:18:24;;;;;;;0.10;0.10;;;11.00;99.90;;;;;;5011837;28;20083;-76
2022/09/29 09:21:02;;;;;;;0.15;0.15;;;11.10;99.90;;;;;;5068158;28;20137;-76
2022/09/29 09:23:46;;;;;;;0.20;0.20;;;11.10;99.90;;;;;;5048940;28;20044;-76
2022/09/29 09:26:13;;;;;;;0.20;0.20;;;11.20;99.90;;;;;;5064285;28;20067;-76
2022/09/29 09:28:48;;;;;;;0.10;0.10;;;11.30;99.90;;;;;;5064000;28;20128;-76
2022/09/29 09:31:39;;;;;;;0.10;0.10;;;11.40;99.90;;;;;;5046768;28;20503;-76
2022/09/29 09:34:26;;;;;;;0.20;0.20;;;11.40;99.90;;;;;;5064368;28;20109;-79
2022/09/29 09:37:01;;;;;;;0.20;0.20;;;11.50;99.90;;;;;;5065048;28;20036;-79
2022/09/29 09:39:44;;;;;;;0.20;0.20;;;11.50;99.90;;;;;;5068452;28;20052;-79
2022/09/29 09:42:17;;;;;;;0.13;0.13;;;11.60;99.90;;;;;;5069210;28;20044;-79
2022/09/29 09:44:58;;;;;;;0.10;0.10;;;11.60;99.90;;;;;;5050069;28;20054;-79
2022/09/29 09:47:31;;;;;;;0.20;0.20;;;11.70;99.90;;;;;;5062872;28;20045;-79
2022/09/29 09:50:15;;;;;;;0.20;0.20;;;11.80;99.90;;;;;;5046091;28;20095;-78
2022/09/29 09:52:50;;;;;;;0.20;0.20;;;11.90;99.90;;;;;;5062270;28;20122;-79
2022/09/29 09:55:25;;;;;;;0.20;0.20;;;12.00;99.90;;;;;;5070918;28;20063;-78
2022/09/29 09:58:12;;;;;;;0.20;0.20;;;12.00;99.90;;;;;;5059432;28;20749;-78
2022/09/29 10:00:56;;;;;;;0.20;0.20;;;12.10;99.90;;;;;;5064104;28;20037;-80
2022/09/29 10:03:21;;;;;;;0.20;0.20;;;12.20;99.90;;;;;;5062420;28;20476;-81
2022/09/29 10:05:48;;;;;;;0.20;0.20;;;12.30;99.90;;;;;;5063851;28;20059;-80
2022/09/29 10:08:28;;;;;;;0.10;0.10;;;12.30;99.90;;;;;;5063128;28;20044;-80
2022/09/29 10:10:54;;;;;;;0.20;0.20;;;;;;;;;;5044131;28;20037;-80
2022/09/29 10:13:24;;;;;;;0.20;0.20;;;;;;;;;;5065066;28;20072;-81
2022/09/29 10:15:53;;;;;;;0.10;0.10;;;;;;;;;;5047772;28;20125;-80
2022/09/29 10:18:22;;;;;;;0.10;0.10;;;;;;;;;;5067629;28;20045;-81
2022/09/29 10:20:48;;;;;;;0.20;0.20;;;;;;;;;;5069324;28;20048;-82
2022/09/29 10:23:20;;;;;;;0.20;0.20;;;;;;;;;;5048970;28;20051;-81
2022/09/29 10:25:55;;;;;;;0.10;0.10;;;;;;;;;;5041599;28;20053;-81
2022/09/29 10:28:22;;;;;;;0.20;0.20;;;;;;;;;;5050375;28;20040;-81
2022/09/29 10:30:48;;;;;;;0.20;0.20;;;;;;;;;;5067024;28;20048;-81
2022/09/29 10:33:16;;;;;;;0.13;0.13;;;;;;;;;;5068585;28;20045;-81
2022/09/29 10:35:43;;;;;;;0.20;0.20;;;;;;;;;;5045706;28;20105;-81
2022/09/29 10:38:26;;;;;;;0.20;0.20;;;;;;;;;;5065715;28;20048;-81
2022/09/29 10:40:57;;;;;;;0.10;0.10;;;;;;;;;;5063043;28;20115;-81
2022/09/29 10:43:31;;;;;;;0.15;0.15;;;;;;;;;;5068061;28;20098;-81
2022/09/29 10:45:58;;;;;;;0.20;0.20;;;;;;;;;;5067294;28;20459;-81
2022/09/29 10:48:25;;;;;;;0.20;0.20;;;;;;;;;;5041192;28;20049;-81
2022/09/29 10:50:51;;;;;;;0.20;0.20;;;;;;;;;;5064925;28;20098;-81
2022/09/29 10:53:30;;;;;;;0.17;0.17;;;;;;;;;;5052002;28;20492;-81
2022/09/29 10:55:58;;;;;;;0.10;0.10;;;;;;;;;;5065581;28;20040;-81
2022/09/29 10:58:27;;;;;;;0.20;0.20;;;;;;;;;;5068355;28;20440;-81
2022/09/29 11:01:13;;;;;;;0.20;0.20;;;;;;;;;;5061629;28;20036;-81
2022/09/29 11:03:41;;;;;;;0.10;0.10;;;;;;;;;;5045682;28;20079;-81
2022/09/29 11:06:13;;;;;;;0.20;0.20;;;;;;;;;;5051883;28;20174;-81
2022/09/29 11:08:59;;;;;;;0.20;0.20;;;;;;;;;;5068908;28;20556;-81
2022/09/29 11:11:34;;;;;;;0.10;0.10;;;;;;;;;;5040635;28;20041;-81
2022/09/29 11:14:00;;;;;;;0.10;0.10;;;;;;;;;;5044070;28;20510;-81
2022/09/29 11:16:31;;;;;;;0.20;0.20;;;;;;;;;;5070017;28;20044;-81
2022/09/29 11:18:57;;;;;;;;;;;;;;;;;;5053427;28;20041;-81
2022/09/29 11:21:42;;;;;;;0.10;0.10;;;;;;;;;;5066901;28;19917;-81
2022/09/29 11:24:20;;;;;;;0.20;0.20;;;;;;;;;;5054663;28;20071;-81
2022/09/29 11:26:49;;;;;;;0.20;0.20;;;;;;;;;;5053935;28;20198;-81
2022/09/29 11:29:24;;;;;;;0.20;0.20;;;;;;;;;;5071109;28;20057;-81
2022/09/29 11:32:04;;;;;;;0.17;0.17;;;;;;;;;;5055157;28;20084;-80
2022/09/29 11:34:53;;;;;;;0.17;0.17;;;;;;;;;;5070937;28;20041;-81
2022/09/29 11:37:28;;;;;;;0.10;0.10;;;;;;;;;;5026343;28;20053;-80
2022/09/29 11:40:03;;;;;;;0.20;0.20;;;;;;;;;;5046957;28;20040;-81
2022/09/29 11:42:40;;;;;;;0.20;0.20;;;;;;;;;;5087852;28;20051;-80
2022/09/29 11:45:14;;;;;;;0.20;0.20;;;;;;;;;;5052141;28;20051;-79
2022/09/29 11:47:46;;;;;;;0.17;0.17;;;;;;;;;;5048750;28;20097;-79
2022/09/29 11:50:30;;;;;;;0.20;0.20;;;;;;;;;;5065227;28;20036;-80
2022/09/29 11:53:13;;;;;;;0.20;0.20;;;;;;;;;;5066804;28;20705;-80
2022/09/29 11:55:41;;;;;;;0.20;0.20;;;;;;;;;;5051801;28;20069;-81
2022/09/29 11:58:25;;;;;;;0.20;0.20;;;;;;;;;;5051350;28;20090;-80
2022/09/29 12:01:10;;;;;;;0.20;0.20;;;;;;;;;;5060093;28;20067;-80
2022/09/29 12:03:40;;;;;;;0.20;0.20;;;;;;;;;;5049805;28;20048;-81
2022/09/29 12:06:25;;;;;;;0.17;0.17;;;;;;;;;;5052012;28;20044;-80
2022/09/29 12:08:52;;;;;;;0.20;0.20;;;;;;;;;;5034304;28;20052;-80
2022/09/29 12:11:18;;;;;;;0.20;0.20;;;;;;;;;;5052175;28;20045;-81
2022/09/29 12:13:44;;;;;;;0.20;0.20;;;;;;;;;;5048963;28;20074;-80
2022/09/29 12:16:12;;;;;;;0.20;0.20;;;;;;;;;;5053595;28;20052;-80
2022/09/29 12:18:58;;;;;;;0.20;0.20;;;;;;;;;;5061638;28;20362;-80
2022/09/29 12:21:45;;;;;;;0.20;0.20;;;;;;;;;;5070588;28;20109;-82
2022/09/29 12:24:25;;;;;;;0.20;0.20;;;;;;;;;;5049142;28;20053;-81
2022/09/29 12:26:52;;;;;;;0.20;0.20;;;;;;;;;;5033508;28;20056;-81
2022/09/29 12:29:21;;;;;;;0.20;0.20;;;;;;;;;;5069727;28;20102;-81
2022/09/29 12:31:48;;;;;;;0.20;0.20;;;;;;;;;;5047202;28;20090;-81
2022/09/29 12:34:17;;;;;;;0.20;0.20;;;;;;;;;;5064861;28;20044;-81
2022/09/29 12:36:51;;;;;;;0.20;0.20;;;;;;;;;;5049742;28;20080;-80
2022/09/29 12:39:36;;;;;;;0.20;0.20;;;;;;;;;;5050076;28;20123;-81
2022/09/29 12:42:14;;;;;;;0.20;0.20;;;;;;;;;;5071857;28;20127;-81
2022/09/29 12:44:47;;;;;;;0.20;0.20;;;;;;;;;;5053692;28;20044;-81
2022/09/29 12:47:22;;;;;;;0.20;0.20;;;;;;;;;;5047754;28;20053;-81
2022/09/29 12:49:48;;;;;;;0.10;0.10;;;;;;;;;;5044776;28;20045;-81
2022/09/29 12:52:23;;;;;;;0.10;0.10;;;;;;;;;;5069451;28;20438;-81
2022/09/29 12:54:54;;;;;;;0.20;0.20;;;;;;;;;;5052787;28;20052;-81
2022/09/29 12:57:23;;;;;;;0.20;0.20;;;;;;;;;;5071644;28;20147;-81
2022/09/29 12:59:54;;;;;;;0.20;0.20;;;;;;;;;;5052352;28;20551;-81
2022/09/29 13:02:36;;;;;;;0.20;0.20;;;;;;;;;;5070139;28;20044;-80
2022/09/29 13:05:20;;;;;;;0.20;0.20;;;;;;;;;;5062043;28;20056;-81
2022/09/29 13:08:01;;;;;;;0.20;0.20;;;;;;;;;;5051288;28;20040;-80
2022/09/29 13:11:06;;;;;;;0.20;0.20;;;;;;;;;;5071262;28;20040;-80
2022/09/29 13:13:37;;;;;;;0.10;0.10;;;;;;;;;;4953899;28;20049;-80
2022/09/29 13:16:22;;;;;;;0.10;0.10;;;;;;;;;;4969109;28;20035;-81
2022/09/29 13:18:48;;;;;;;0.20;0.20;;;;;;;;;;5015104;28;20060;-80
2022/09/29 13:21:19;;;;;;;0.17;0.17;;;;;;;;;;5070624;28;20447;-80
2022/09/29 13:24:15;;;;;;;0.20;0.20;;;;;;;;;;5050949;28;20048;-80
2022/09/29 13:26:41;;;;;;;0.10;0.10;;;;;;;;;;4987232;28;20078;-80
2022/09/29 13:29:13;;;;;;;0.20;0.20;;;;;;;;;;5060755;28;20063;-81
2022/09/29 13:31:40;;;;;;;0.10;0.10;;;;;;;;;;5060359;28;20080;-79
2022/09/29 13:34:06;;;;;;;0.20;0.20;;;;;;;;;;5062509;28;20076;-79
2022/09/29 13:36:36;;;;;;;0.20;0.20;;;;;;;;;;5050891;28;20051;-79
2022/09/29 13:39:07;;;;;;;0.20;0.20;;;;;;;;;;5052413;28;20511;-79
2022/09/29 13:41:38;;;;;;;0.22;0.22;;;;;;;;;;5070671;28;20041;-79
2022/09/29 13:44:06;;;;;;;0.20;0.20;;;;;;;;;;5066797;28;20075;-80
2022/09/29 13:46:32;;;;;;;0.10;0.10;;;;;;;;;;5048836;28;20507;-79